Saint Helens, Oregon
Current Conditions -  °F | °C
As of 5:53 AM on Thursday 23 Oct 2014 (Local Time) from KSPB Reporting Station
Light Rain Light Rain  
Wind Chill: 54°   Ceiling: 400
Heat Index: 54°   Visibility: 9mi
Dew Point: 53°   Wind: 0mph
Humidity: 97%   Direction: NA
Pressure: 29.75"   Gusts: NA
Location:  45.86°N, 122.81°W
Report Text: KSPB 231253Z AUTO 00000KT 9SM -RA OVC004 12/12 A2975 RMK AO2 SLP074 P0008 T01220117
Loading
Personal Weather Stations






























Interactive Weather Map
Tropical Storm Tracking
New forecast layout! Learn more

10-Day Weather Forecast

Advertisements
Track Severe Weather on mobile